createdAt,value
2022-08-28T00:00:51.152Z,0.00
2022-08-28T00:01:51.313Z,0.00
2022-08-28T00:02:51.512Z,0.00
2022-08-28T00:03:51.564Z,0.00
2022-08-28T00:04:51.823Z,0.00
2022-08-28T00:05:51.847Z,0.00
2022-08-28T00:06:51.985Z,0.00
2022-08-28T00:07:52.154Z,0.00
2022-08-28T00:08:52.280Z,0.00
2022-08-28T00:09:52.424Z,0.00
2022-08-28T00:10:52.549Z,0.00
2022-08-28T00:11:52.694Z,0.00
2022-08-28T00:12:52.853Z,0.00
2022-08-28T00:13:53.013Z,0.00
2022-08-28T00:14:53.122Z,0.00
2022-08-28T00:15:53.285Z,0.00
2022-08-28T00:16:53.360Z,0.00
2022-08-28T00:17:53.483Z,0.00
2022-08-28T00:18:53.621Z,0.00
2022-08-28T00:19:53.757Z,0.00
2022-08-28T00:20:53.884Z,0.00
2022-08-28T00:21:54.010Z,0.00
2022-08-28T00:22:54.203Z,0.00
2022-08-28T00:23:54.258Z,0.00
2022-08-28T00:24:54.967Z,0.00
2022-08-28T00:25:54.559Z,0.00
2022-08-28T00:26:54.700Z,0.00
2022-08-28T00:27:55.018Z,0.00
2022-08-28T00:28:54.993Z,0.00
2022-08-28T00:29:55.138Z,0.00
2022-08-28T00:30:55.357Z,0.00
2022-08-28T00:31:55.431Z,0.00
2022-08-28T00:32:55.621Z,0.00
2022-08-28T00:33:55.711Z,0.00
2022-08-28T00:34:55.811Z,0.00
2022-08-28T00:35:55.929Z,0.00
2022-08-28T00:36:56.077Z,0.00
2022-08-28T00:37:56.244Z,0.00
2022-08-28T00:38:56.532Z,0.00
2022-08-28T00:39:56.604Z,0.00
2022-08-28T00:40:56.699Z,0.00
2022-08-28T00:41:58.018Z,0.00
2022-08-28T00:42:57.012Z,0.00
2022-08-28T00:43:57.170Z,0.00
2022-08-28T00:44:57.298Z,0.00
2022-08-28T00:45:57.433Z,0.00
2022-08-28T00:46:57.579Z,0.00
2022-08-28T00:47:57.662Z,0.00
2022-08-28T00:48:57.820Z,0.00
2022-08-28T00:49:57.900Z,0.00
2022-08-28T00:51:00.560Z,0.00
2022-08-28T00:51:58.150Z,0.00
2022-08-28T00:52:58.309Z,0.00
2022-08-28T00:53:59.303Z,0.00
2022-08-28T00:54:59.825Z,0.00
2022-08-28T00:55:58.749Z,0.00
2022-08-28T00:56:58.909Z,0.00
2022-08-28T00:57:59.006Z,0.00
2022-08-28T00:58:59.182Z,0.00
2022-08-28T00:59:59.319Z,0.00
2022-08-28T01:00:59.443Z,0.00
2022-08-28T01:01:59.610Z,0.00
2022-08-28T01:02:59.724Z,0.00
2022-08-28T01:03:59.824Z,0.00
2022-08-28T01:04:59.978Z,0.00
2022-08-28T01:06:00.179Z,0.00
2022-08-28T01:07:00.279Z,0.00
2022-08-28T01:08:00.366Z,0.00
2022-08-28T01:09:00.479Z,0.00
2022-08-28T01:10:00.629Z,0.00
2022-08-28T01:11:00.789Z,0.00
2022-08-28T01:12:00.919Z,0.00
2022-08-28T01:13:01.050Z,0.00
2022-08-28T01:14:01.919Z,0.00
2022-08-28T01:15:01.320Z,0.00
2022-08-28T01:16:01.537Z,0.00
2022-08-28T01:17:01.571Z,0.00
2022-08-28T01:18:05.906Z,0.00
2022-08-28T01:19:02.858Z,0.00
2022-08-28T01:20:01.980Z,0.00
2022-08-28T01:21:02.119Z,0.00
2022-08-28T01:22:02.273Z,0.00
2022-08-28T01:23:02.408Z,0.00
2022-08-28T01:24:02.527Z,0.00
2022-08-28T01:25:02.722Z,0.00
2022-08-28T01:26:02.889Z,0.00
2022-08-28T01:27:03.888Z,0.00
2022-08-28T01:28:03.030Z,0.00
2022-08-28T01:29:03.157Z,0.00
2022-08-28T01:30:03.289Z,0.00
2022-08-28T01:31:03.452Z,0.00
2022-08-28T01:32:03.568Z,0.00
2022-08-28T01:33:03.667Z,0.00
2022-08-28T01:34:03.806Z,0.00
2022-08-28T01:35:03.998Z,0.00
2022-08-28T01:36:04.113Z,0.00
2022-08-28T01:37:04.176Z,0.00
2022-08-28T01:38:04.310Z,0.00
2022-08-28T01:39:04.441Z,0.00
2022-08-28T01:40:04.604Z,0.00
2022-08-28T01:41:04.699Z,0.00
2022-08-28T01:42:04.851Z,0.00
2022-08-28T01:43:04.979Z,0.00
2022-08-28T01:44:05.118Z,0.00
2022-08-28T01:45:05.256Z,0.00
2022-08-28T01:46:05.455Z,0.00
2022-08-28T01:47:05.526Z,0.00
2022-08-28T01:48:05.658Z,0.00
2022-08-28T01:49:05.801Z,0.00
2022-08-28T01:50:05.919Z,0.00
2022-08-28T01:51:06.059Z,0.00
2022-08-28T01:52:06.186Z,0.00
2022-08-28T01:53:06.353Z,0.00
2022-08-28T01:54:07.678Z,0.00
2022-08-28T01:55:06.585Z,0.00
2022-08-28T01:56:06.667Z,0.00
2022-08-28T01:57:06.842Z,0.00
2022-08-28T01:58:06.978Z,0.00
2022-08-28T01:59:07.145Z,0.00
2022-08-28T02:00:07.276Z,0.00
2022-08-28T02:01:07.429Z,0.00
2022-08-28T02:02:07.590Z,0.00
2022-08-28T02:03:07.746Z,0.00
2022-08-28T02:04:07.955Z,0.00
2022-08-28T02:05:08.076Z,0.00
2022-08-28T02:06:08.202Z,0.00
2022-08-28T02:07:08.335Z,0.00
2022-08-28T02:08:08.538Z,0.00
2022-08-28T02:09:10.278Z,0.00
2022-08-28T02:10:09.808Z,0.00
2022-08-28T02:11:08.935Z,0.00
2022-08-28T02:12:09.067Z,0.00
2022-08-28T02:13:09.197Z,0.00
2022-08-28T02:14:09.324Z,0.00
2022-08-28T02:15:09.456Z,0.00
2022-08-28T02:16:09.782Z,0.00
2022-08-28T02:17:09.758Z,0.00
2022-08-28T02:18:09.983Z,0.00
2022-08-28T02:19:10.817Z,0.00
2022-08-28T02:20:10.132Z,0.00
2022-08-28T02:21:10.270Z,0.00
2022-08-28T02:22:10.358Z,0.00
2022-08-28T02:23:10.496Z,0.00
2022-08-28T02:24:10.637Z,0.00
2022-08-28T02:25:10.806Z,0.00
2022-08-28T02:26:10.956Z,0.00
2022-08-28T02:27:11.086Z,0.00
2022-08-28T02:28:11.408Z,0.00
2022-08-28T02:29:11.387Z,0.00
2022-08-28T02:30:11.525Z,0.00
2022-08-28T02:31:11.686Z,0.00
2022-08-28T02:32:11.758Z,0.00
2022-08-28T02:33:11.898Z,0.00
2022-08-28T02:34:12.046Z,0.00
2022-08-28T02:35:12.299Z,0.00
2022-08-28T02:36:12.327Z,0.00
2022-08-28T02:37:12.455Z,0.00
2022-08-28T02:38:12.662Z,0.00
2022-08-28T02:39:12.694Z,0.00
2022-08-28T02:40:12.829Z,0.00
2022-08-28T02:41:12.983Z,0.00
2022-08-28T02:42:13.114Z,0.00
2022-08-28T02:43:13.286Z,0.00
2022-08-28T02:44:13.418Z,0.00
2022-08-28T02:45:13.549Z,0.00
2022-08-28T02:46:13.775Z,0.00
2022-08-28T02:47:13.846Z,0.00
2022-08-28T02:48:17.183Z,0.00
2022-08-28T02:49:14.149Z,0.00
2022-08-28T02:50:14.264Z,0.00
2022-08-28T02:51:14.437Z,0.00
2022-08-28T02:52:14.589Z,0.00
2022-08-28T02:53:14.738Z,0.00
2022-08-28T02:54:14.855Z,0.00
2022-08-28T02:55:15.036Z,0.00
2022-08-28T02:56:15.178Z,0.00
2022-08-28T02:57:15.328Z,0.00
2022-08-28T02:58:15.427Z,0.00
2022-08-28T02:59:15.534Z,0.00
2022-08-28T03:00:15.656Z,0.00
2022-08-28T03:01:15.843Z,0.00
2022-08-28T03:02:16.004Z,0.00
2022-08-28T03:03:16.037Z,0.00
2022-08-28T03:04:16.725Z,0.00
2022-08-28T03:05:16.285Z,0.00
2022-08-28T03:06:16.418Z,0.00
2022-08-28T03:07:16.565Z,0.00
2022-08-28T03:08:16.644Z,0.00
2022-08-28T03:09:16.784Z,0.00
2022-08-28T03:10:16.913Z,0.00
2022-08-28T03:11:17.066Z,0.00
2022-08-28T03:12:17.160Z,0.00
2022-08-28T03:13:26.843Z,0.00
2022-08-28T03:14:18.413Z,0.00
2022-08-28T03:15:17.553Z,0.00
2022-08-28T03:16:17.689Z,0.00
2022-08-28T03:17:17.774Z,0.00
2022-08-28T03:18:17.914Z,0.00
2022-08-28T03:19:18.066Z,0.00
2022-08-28T03:20:18.204Z,0.00
2022-08-28T03:21:18.392Z,0.00
2022-08-28T03:22:18.555Z,0.00
2022-08-28T03:23:18.714Z,0.00
2022-08-28T03:24:18.796Z,0.00
2022-08-28T03:25:18.925Z,0.00
2022-08-28T03:26:19.055Z,0.00
2022-08-28T03:27:19.195Z,0.00
2022-08-28T03:28:19.335Z,0.00
2022-08-28T03:29:19.433Z,0.00
2022-08-28T03:30:19.555Z,0.00
2022-08-28T03:31:19.801Z,0.00
2022-08-28T03:32:19.819Z,0.00
2022-08-28T03:33:20.015Z,0.00
2022-08-28T03:34:20.074Z,0.00
2022-08-28T03:35:20.203Z,0.00
2022-08-28T03:36:20.335Z,0.00
2022-08-28T03:37:20.476Z,0.00
2022-08-28T03:38:20.642Z,0.00
2022-08-28T03:39:20.782Z,0.00
2022-08-28T03:40:21.002Z,0.00
2022-08-28T03:41:21.053Z,0.00
2022-08-28T03:42:21.142Z,0.00
2022-08-28T03:43:21.270Z,0.00
2022-08-28T03:44:21.404Z,0.00
2022-08-28T03:45:21.538Z,0.00
2022-08-28T03:46:21.689Z,0.00
2022-08-28T03:47:21.833Z,0.00
2022-08-28T03:48:21.955Z,0.00
2022-08-28T03:49:22.110Z,0.00
2022-08-28T03:50:22.202Z,0.00
2022-08-28T03:51:29.125Z,0.00
2022-08-28T03:52:23.458Z,0.00
2022-08-28T03:53:22.575Z,0.00
2022-08-28T03:54:22.713Z,0.00
2022-08-28T03:55:22.873Z,0.00
2022-08-28T03:56:23.002Z,0.00
2022-08-28T03:57:23.137Z,0.00
2022-08-28T03:58:23.253Z,0.00
2022-08-28T03:59:26.631Z,0.00
2022-08-28T04:00:24.503Z,0.00
2022-08-28T04:01:24.351Z,0.00
2022-08-28T04:02:23.732Z,0.00
2022-08-28T04:03:23.930Z,0.00
2022-08-28T04:04:24.035Z,0.00
2022-08-28T04:05:24.184Z,0.00
2022-08-28T04:06:24.369Z,4.00
2022-08-28T04:07:24.531Z,4.00
2022-08-28T04:08:24.610Z,4.00
2022-08-28T04:09:24.742Z,0.00
2022-08-28T04:10:24.873Z,4.00
2022-08-28T04:11:25.048Z,4.00
2022-08-28T04:12:25.103Z,4.00
2022-08-28T04:13:25.250Z,8.00
2022-08-28T04:14:25.376Z,8.00
2022-08-28T04:15:25.513Z,8.00
2022-08-28T04:16:25.718Z,12.00
2022-08-28T04:17:25.763Z,12.00
2022-08-28T04:18:25.892Z,16.00
2022-08-28T04:19:26.021Z,20.00
2022-08-28T04:20:26.167Z,24.00
2022-08-28T04:21:26.352Z,28.00
2022-08-28T04:22:26.491Z,32.00
2022-08-28T04:23:26.601Z,36.00
2022-08-28T04:24:26.732Z,44.00
2022-08-28T04:25:26.860Z,52.00
2022-08-28T04:26:27.002Z,60.00
2022-08-28T04:27:27.133Z,72.00
2022-08-28T04:28:27.261Z,84.00
2022-08-28T04:29:27.388Z,92.00
2022-08-28T04:30:27.530Z,108.00
2022-08-28T04:31:31.880Z,120.00
2022-08-28T04:32:28.822Z,140.00
2022-08-28T04:33:27.969Z,156.00
2022-08-28T04:34:28.057Z,176.00
2022-08-28T04:35:28.181Z,192.00
2022-08-28T04:36:28.342Z,216.00
2022-08-28T04:37:28.502Z,232.00
2022-08-28T04:38:28.597Z,260.00
2022-08-28T04:39:28.721Z,280.00
2022-08-28T04:40:28.944Z,304.00
2022-08-28T04:41:29.021Z,328.00
2022-08-28T04:42:29.164Z,352.00
2022-08-28T04:43:29.238Z,384.00
2022-08-28T04:44:29.379Z,408.00
2022-08-28T04:45:29.524Z,436.00
2022-08-28T04:46:31.130Z,464.00
2022-08-28T04:47:29.771Z,492.00
2022-08-28T04:48:30.503Z,520.00
2022-08-28T04:49:30.040Z,548.00
2022-08-28T04:50:30.118Z,584.00
2022-08-28T04:51:30.219Z,612.00
2022-08-28T04:52:30.380Z,644.00
2022-08-28T04:53:30.480Z,672.00
2022-08-28T04:54:30.587Z,704.00
2022-08-28T04:55:53.685Z,732.00
2022-08-28T04:56:31.840Z,768.00
2022-08-28T04:57:35.693Z,800.00
2022-08-28T04:58:32.107Z,832.00
2022-08-28T04:59:31.188Z,868.00
2022-08-28T05:00:31.341Z,900.00
2022-08-28T05:01:31.578Z,932.00
2022-08-28T05:02:31.650Z,964.00
2022-08-28T05:03:31.760Z,996.00
2022-08-28T05:04:31.909Z,1032.00
2022-08-28T05:05:32.021Z,1064.00
2022-08-28T05:06:32.157Z,1092.00
2022-08-28T05:07:32.298Z,1124.00
2022-08-28T05:08:32.449Z,1156.00
2022-08-28T05:09:32.549Z,1184.00
2022-08-28T05:10:32.714Z,1212.00
2022-08-28T05:11:34.474Z,1240.00
2022-08-28T05:12:32.975Z,1272.00
2022-08-28T05:13:33.128Z,1296.00
2022-08-28T05:14:33.238Z,1328.00
2022-08-28T05:15:33.378Z,1356.00
2022-08-28T05:16:33.611Z,1384.00
2022-08-28T05:17:33.637Z,1408.00
2022-08-28T05:18:33.806Z,1432.00
2022-08-28T05:19:33.878Z,1460.00
2022-08-28T05:20:34.038Z,1488.00
2022-08-28T05:21:34.118Z,1512.00
2022-08-28T05:22:34.267Z,1536.00
2022-08-28T05:23:34.428Z,1564.00
2022-08-28T05:24:34.527Z,1584.00
2022-08-28T05:25:34.658Z,1608.00
2022-08-28T05:26:34.807Z,1644.00
2022-08-28T05:27:34.928Z,1660.00
2022-08-28T05:28:35.098Z,1688.00
2022-08-28T05:29:35.187Z,1720.00
2022-08-28T05:30:35.296Z,1744.00
2022-08-28T05:31:35.466Z,1764.00
2022-08-28T05:32:35.540Z,1772.00
2022-08-28T05:33:35.677Z,1788.00
2022-08-28T05:34:35.839Z,1804.00
2022-08-28T05:35:35.916Z,1836.00
2022-08-28T05:36:36.060Z,1868.00
2022-08-28T05:37:36.214Z,1884.00
2022-08-28T05:38:36.306Z,1904.00
2022-08-28T05:39:36.509Z,1924.00
2022-08-28T05:40:36.638Z,1948.00
2022-08-28T05:41:36.637Z,1984.00
2022-08-28T05:42:39.040Z,2044.00
2022-08-28T05:43:36.916Z,2108.00
2022-08-28T05:44:37.117Z,2144.00
2022-08-28T05:45:37.263Z,2172.00
2022-08-28T05:46:37.356Z,2200.00
2022-08-28T05:47:37.424Z,2228.00
2022-08-28T05:48:39.545Z,2260.00
2022-08-28T05:49:37.702Z,2288.00
2022-08-28T05:50:37.804Z,2312.00
2022-08-28T05:51:37.943Z,2332.00
2022-08-28T05:52:38.097Z,2348.00
2022-08-28T05:53:38.205Z,2368.00
2022-08-28T05:54:38.367Z,2380.00
2022-08-28T05:55:38.459Z,2392.00
2022-08-28T05:56:38.658Z,2392.00
2022-08-28T05:57:38.725Z,2388.00
2022-08-28T05:58:38.865Z,2388.00
2022-08-28T05:59:39.036Z,2396.00
2022-08-28T06:00:39.126Z,2408.00
2022-08-28T06:01:39.305Z,2416.00
2022-08-28T06:02:39.337Z,2436.00
2022-08-28T06:03:39.518Z,2460.00
2022-08-28T06:04:39.678Z,2496.00
2022-08-28T06:05:39.755Z,2540.00
2022-08-28T06:06:39.852Z,2588.00
2022-08-28T06:07:39.985Z,2640.00
2022-08-28T06:08:56.375Z,2700.00
2022-08-28T06:09:41.287Z,2764.00
2022-08-28T06:10:40.364Z,2828.00
2022-08-28T06:11:42.845Z,2896.00
2022-08-28T06:12:41.646Z,2980.00
2022-08-28T06:13:40.747Z,3060.00
2022-08-28T06:14:40.867Z,3136.00
2022-08-28T06:15:40.976Z,3212.00
2022-08-28T06:16:41.123Z,3280.00
2022-08-28T06:17:41.225Z,3324.00
2022-08-28T06:18:41.371Z,3360.00
2022-08-28T06:19:41.874Z,3412.00
2022-08-28T06:20:41.654Z,3500.00
2022-08-28T06:21:41.806Z,3612.00
2022-08-28T06:22:41.944Z,3748.00
2022-08-28T06:23:42.076Z,3896.00
2022-08-28T06:24:42.242Z,4072.00
2022-08-28T06:25:42.383Z,4252.00
2022-08-28T06:26:42.538Z,4440.00
2022-08-28T06:27:42.678Z,4604.00
2022-08-28T06:28:42.824Z,4676.00
2022-08-28T06:29:42.944Z,4692.00
2022-08-28T06:30:57.304Z,4648.00
2022-08-28T06:31:44.213Z,4528.00
2022-08-28T06:32:43.292Z,4408.00
2022-08-28T06:33:43.396Z,4304.00
2022-08-28T06:34:43.585Z,4244.00
2022-08-28T06:35:43.662Z,4176.00
2022-08-28T06:36:43.803Z,4096.00
2022-08-28T06:37:43.932Z,4096.00
2022-08-28T06:38:44.086Z,4084.00
2022-08-28T06:39:44.205Z,4072.00
2022-08-28T06:40:44.325Z,4092.00
2022-08-28T06:41:44.424Z,4100.00
2022-08-28T06:42:44.574Z,4128.00
2022-08-28T06:43:44.730Z,4148.00
2022-08-28T06:44:44.846Z,4096.00
2022-08-28T06:45:44.995Z,4088.00
2022-08-28T06:46:45.075Z,4084.00
2022-08-28T06:47:45.214Z,4116.00
2022-08-28T06:48:45.353Z,4108.00
2022-08-28T06:49:45.522Z,4164.00
2022-08-28T06:50:45.615Z,4152.00
2022-08-28T06:51:45.725Z,4080.00
2022-08-28T06:52:45.847Z,3996.00
2022-08-28T06:53:45.942Z,3900.00
2022-08-28T06:54:55.819Z,3828.00
2022-08-28T06:55:47.216Z,3768.00
2022-08-28T06:56:46.342Z,3792.00
2022-08-28T06:57:46.481Z,3808.00
2022-08-28T06:58:50.301Z,3788.00
2022-08-28T06:59:47.756Z,3720.00
2022-08-28T07:00:46.901Z,3684.00
2022-08-28T07:01:47.235Z,3740.00
2022-08-28T07:02:47.176Z,3856.00
2022-08-28T07:03:47.260Z,3892.00
2022-08-28T07:04:47.383Z,3880.00
2022-08-28T07:05:47.523Z,3976.00
2022-08-28T07:06:52.796Z,4068.00
2022-08-28T07:07:48.784Z,4116.00
2022-08-28T07:08:47.916Z,4152.00
2022-08-28T07:09:48.055Z,4332.00
2022-08-28T07:10:48.185Z,4556.00
2022-08-28T07:11:48.304Z,4620.00
2022-08-28T07:12:48.410Z,4700.00
2022-08-28T07:13:48.514Z,4876.00
2022-08-28T07:14:48.651Z,5012.00
2022-08-28T07:15:48.886Z,5096.00
2022-08-28T07:16:48.946Z,5368.00
2022-08-28T07:17:49.085Z,5748.00
2022-08-28T07:18:49.224Z,5952.00
2022-08-28T07:19:49.376Z,6104.00
2022-08-28T07:20:49.485Z,6048.00
2022-08-28T07:21:49.625Z,5496.00
2022-08-28T07:22:49.712Z,5024.00
2022-08-28T07:23:49.825Z,4748.00
2022-08-28T07:24:49.973Z,4748.00
2022-08-28T07:25:50.114Z,4652.00
2022-08-28T07:26:50.272Z,4380.00
2022-08-28T07:27:50.381Z,4412.00
2022-08-28T07:28:50.488Z,4424.00
2022-08-28T07:29:50.626Z,4464.00
2022-08-28T07:30:50.830Z,4296.00
2022-08-28T07:31:50.912Z,4176.00
2022-08-28T07:32:51.054Z,4160.00
2022-08-28T07:33:54.037Z,4544.00
2022-08-28T07:34:51.273Z,4680.00
2022-08-28T07:35:51.369Z,4892.00
2022-08-28T07:36:51.535Z,5084.00
2022-08-28T07:37:51.676Z,4512.00
2022-08-28T07:38:51.812Z,4920.00
2022-08-28T07:39:52.117Z,5072.00
2022-08-28T07:40:52.044Z,4884.00
2022-08-28T07:41:52.167Z,5096.00
2022-08-28T07:42:52.334Z,5172.00
2022-08-28T07:43:52.435Z,5416.00
2022-08-28T07:44:52.576Z,4936.00
2022-08-28T07:45:52.735Z,4692.00
2022-08-28T07:46:52.855Z,4884.00
2022-08-28T07:47:52.937Z,4700.00
2022-08-28T07:48:53.082Z,4536.00
2022-08-28T07:49:53.203Z,4492.00
2022-08-28T07:50:53.318Z,3972.00
2022-08-28T07:51:54.224Z,5496.00
2022-08-28T07:52:53.542Z,6268.00
2022-08-28T07:53:53.682Z,6380.00
2022-08-28T07:54:53.827Z,6436.00
2022-08-28T07:55:53.936Z,6280.00
2022-08-28T07:56:54.093Z,6048.00
2022-08-28T07:57:54.183Z,5876.00
2022-08-28T07:58:54.337Z,5776.00
2022-08-28T07:59:54.425Z,5760.00
2022-08-28T08:00:54.568Z,5868.00
2022-08-28T08:01:54.757Z,6072.00
2022-08-28T08:02:54.847Z,6160.00
2022-08-28T08:03:57.661Z,6284.00
2022-08-28T08:04:56.068Z,6728.00
2022-08-28T08:05:55.205Z,7084.00
2022-08-28T08:06:58.075Z,6992.00
2022-08-28T08:07:55.465Z,6864.00
2022-08-28T08:08:55.593Z,6932.00
2022-08-28T08:09:55.726Z,6784.00
2022-08-28T08:10:55.846Z,6760.00
2022-08-28T08:11:55.966Z,5896.00
2022-08-28T08:12:56.064Z,6760.00
2022-08-28T08:13:56.173Z,7736.00
2022-08-28T08:14:56.315Z,7896.00
2022-08-28T08:15:56.431Z,7448.00
2022-08-28T08:16:56.549Z,7072.00
2022-08-28T08:17:56.625Z,7924.00
2022-08-28T08:18:56.808Z,8272.00
2022-08-28T08:19:56.866Z,7540.00
2022-08-28T08:20:57.014Z,6164.00
2022-08-28T08:21:57.135Z,5940.00
2022-08-28T08:22:57.247Z,7492.00
2022-08-28T08:23:57.374Z,7296.00
2022-08-28T08:24:57.548Z,6856.00
2022-08-28T08:25:57.635Z,6368.00
2022-08-28T08:26:59.762Z,6204.00
2022-08-28T08:27:57.906Z,6104.00
2022-08-28T08:28:58.062Z,6136.00
2022-08-28T08:29:58.176Z,6516.00
2022-08-28T08:30:58.344Z,6740.00
2022-08-28T08:31:58.394Z,7176.00
2022-08-28T08:32:58.560Z,7680.00
2022-08-28T08:33:58.696Z,7864.00
2022-08-28T08:34:58.843Z,7740.00
2022-08-28T08:35:58.975Z,7692.00
2022-08-28T08:36:59.137Z,7568.00
2022-08-28T08:38:02.793Z,7220.00
2022-08-28T08:39:00.328Z,6972.00
2022-08-28T08:39:59.489Z,6820.00
2022-08-28T08:40:59.584Z,6692.00
2022-08-28T08:41:59.732Z,6640.00
2022-08-28T08:42:59.844Z,6860.00
2022-08-28T08:43:59.964Z,7260.00
2022-08-28T08:45:00.077Z,7636.00
2022-08-28T08:46:00.248Z,7564.00
2022-08-28T08:47:00.384Z,8568.00
2022-08-28T08:48:00.495Z,8864.00
2022-08-28T08:49:00.610Z,9012.00
2022-08-28T08:50:00.686Z,9132.00
2022-08-28T08:51:00.817Z,9396.00
2022-08-28T08:52:01.024Z,9376.00
2022-08-28T08:53:01.073Z,9496.00
2022-08-28T08:54:01.217Z,9412.00
2022-08-28T08:55:01.345Z,9096.00
2022-08-28T08:56:01.492Z,9360.00
2022-08-28T08:57:02.314Z,9896.00
2022-08-28T08:58:02.374Z,9932.00
2022-08-28T08:59:01.885Z,8104.00
2022-08-28T09:00:02.409Z,6956.00
2022-08-28T09:01:02.938Z,6680.00
2022-08-28T09:02:02.351Z,9536.00
2022-08-28T09:03:02.871Z,8672.00
2022-08-28T09:04:02.517Z,9812.00
2022-08-28T09:05:02.960Z,7536.00
2022-08-28T09:06:03.455Z,7820.00
2022-08-28T09:07:02.879Z,6572.00
2022-08-28T09:08:03.026Z,6440.00
2022-08-28T09:09:03.076Z,6044.00
2022-08-28T09:10:03.207Z,5800.00
2022-08-28T09:11:03.690Z,5632.00
2022-08-28T09:12:03.457Z,5920.00
2022-08-28T09:13:03.527Z,6600.00
2022-08-28T09:14:03.676Z,12000.00
2022-08-28T09:15:03.810Z,6172.00
2022-08-28T09:16:03.973Z,6452.00
2022-08-28T09:17:04.068Z,11832.00
2022-08-28T09:18:04.180Z,11860.00
2022-08-28T09:19:04.275Z,12564.00
2022-08-28T09:20:04.419Z,12160.00
2022-08-28T09:21:06.548Z,13232.00
2022-08-28T09:22:04.700Z,12516.00
2022-08-28T09:23:12.781Z,11600.00
2022-08-28T09:24:11.170Z,11752.00
2022-08-28T09:25:06.001Z,11196.00
2022-08-28T09:26:05.128Z,10636.00
2022-08-28T09:27:05.228Z,8056.00
2022-08-28T09:28:05.409Z,10892.00
2022-08-28T09:29:05.482Z,12276.00
2022-08-28T09:30:08.057Z,12216.00
2022-08-28T09:31:05.817Z,7360.00
2022-08-28T09:32:05.870Z,6676.00
2022-08-28T09:33:05.964Z,6564.00
2022-08-28T09:34:06.112Z,7680.00
2022-08-28T09:35:06.267Z,12524.00
2022-08-28T09:36:06.400Z,12524.00
2022-08-28T09:37:06.495Z,12480.00
2022-08-28T09:38:06.674Z,13208.00
2022-08-28T09:39:06.750Z,12960.00
2022-08-28T09:40:07.030Z,13372.00
2022-08-28T09:41:06.961Z,13648.00
2022-08-28T09:42:07.109Z,13228.00
2022-08-28T09:43:07.272Z,14016.00
2022-08-28T09:44:07.370Z,13820.00
2022-08-28T09:45:09.415Z,13952.00
2022-08-28T09:46:07.764Z,14528.00
2022-08-28T09:47:07.775Z,14912.00
2022-08-28T09:48:07.872Z,18368.00
2022-08-28T09:49:07.970Z,26080.00
2022-08-28T09:50:08.114Z,28800.00
2022-08-28T09:51:08.243Z,24096.00
2022-08-28T09:52:08.343Z,22080.00
2022-08-28T09:53:08.460Z,21568.00
2022-08-28T09:54:08.570Z,23008.00
2022-08-28T09:55:08.709Z,27872.00
2022-08-28T09:56:08.866Z,32288.00
2022-08-28T09:57:08.972Z,26432.00
2022-08-28T09:58:09.202Z,24736.00
2022-08-28T09:59:09.250Z,25696.00
2022-08-28T10:00:09.434Z,29728.00
2022-08-28T10:01:09.603Z,29120.00
2022-08-28T10:02:09.760Z,24896.00
2022-08-28T10:03:09.823Z,25472.00
2022-08-28T10:04:09.963Z,25984.00
2022-08-28T10:05:10.086Z,28064.00
2022-08-28T10:06:10.192Z,28416.00
2022-08-28T10:07:10.303Z,29216.00
2022-08-28T10:08:10.425Z,27616.00
2022-08-28T10:09:10.579Z,25632.00
2022-08-28T10:10:10.664Z,24832.00
2022-08-28T10:11:10.756Z,25056.00
2022-08-28T10:12:10.871Z,27040.00
2022-08-28T10:13:11.024Z,26464.00
2022-08-28T10:14:11.137Z,26272.00
2022-08-28T10:15:11.235Z,29920.00
2022-08-28T10:16:11.380Z,32416.00
2022-08-28T10:17:11.484Z,29504.00
2022-08-28T10:18:11.712Z,8904.00
2022-08-28T10:19:11.705Z,34240.00
2022-08-28T10:20:11.860Z,33312.00
2022-08-28T10:21:11.998Z,31488.00
2022-08-28T10:22:12.130Z,30592.00
2022-08-28T10:23:17.015Z,32544.00
2022-08-28T10:24:13.342Z,35168.00
2022-08-28T10:25:12.475Z,37984.00
2022-08-28T10:26:12.568Z,38816.00
2022-08-28T10:27:12.687Z,39104.00
2022-08-28T10:28:13.056Z,41696.00
2022-08-28T10:29:12.926Z,39776.00
2022-08-28T10:30:13.553Z,38432.00
2022-08-28T10:31:13.253Z,42752.00
2022-08-28T10:32:13.316Z,47072.00
2022-08-28T10:33:13.466Z,43232.00
2022-08-28T10:34:13.616Z,39936.00
2022-08-28T10:35:13.748Z,39872.00
2022-08-28T10:36:27.391Z,13860.00
2022-08-28T10:37:14.967Z,11784.00
2022-08-28T10:38:14.298Z,48352.00
2022-08-28T10:39:14.228Z,52704.00
2022-08-28T10:40:14.423Z,50272.00
2022-08-28T10:41:14.475Z,50720.00
2022-08-28T10:42:14.628Z,52608.00
2022-08-28T10:43:14.750Z,46976.00
2022-08-28T10:44:14.861Z,52000.00
2022-08-28T10:45:15.017Z,66304.00
2022-08-28T10:46:15.215Z,66720.00
2022-08-28T10:47:15.237Z,68288.00
2022-08-28T10:48:15.488Z,73504.00
2022-08-28T10:49:15.488Z,56960.00
2022-08-28T10:50:15.649Z,16008.00
2022-08-28T10:51:15.757Z,81664.00
2022-08-28T10:52:15.878Z,50688.00
2022-08-28T10:53:15.980Z,53376.00
2022-08-28T10:54:16.108Z,16608.00
2022-08-28T10:55:16.258Z,17792.00
2022-08-28T10:56:23.450Z,15404.00
2022-08-28T10:57:16.499Z,40608.00
2022-08-28T10:58:24.827Z,75744.00
2022-08-28T10:59:17.769Z,20128.00
2022-08-28T11:00:16.929Z,15184.00
2022-08-28T11:01:17.061Z,13444.00
2022-08-28T11:02:17.177Z,14748.00
2022-08-28T11:03:33.453Z,13528.00
2022-08-28T11:04:24.875Z,60032.00
2022-08-28T11:05:18.498Z,54944.00
2022-08-28T11:06:17.638Z,60288.00
2022-08-28T11:07:17.739Z,62400.00
2022-08-28T11:08:17.905Z,32160.00
2022-08-28T11:09:18.012Z,41344.00
2022-08-28T11:10:18.129Z,47200.00
2022-08-28T11:11:18.234Z,52128.00
2022-08-28T11:12:18.378Z,60256.00
2022-08-28T11:13:18.535Z,55520.00
2022-08-28T11:14:18.672Z,53472.00
2022-08-28T11:15:18.751Z,59808.00
2022-08-28T11:16:18.921Z,60640.00
2022-08-28T11:17:19.020Z,63264.00
2022-08-28T11:18:19.181Z,66336.00
2022-08-28T11:19:19.310Z,69824.00
2022-08-28T11:20:19.431Z,70496.00
2022-08-28T11:21:19.521Z,66784.00
2022-08-28T11:22:19.668Z,62112.00
2022-08-28T11:23:19.791Z,61152.00
2022-08-28T11:24:19.932Z,62752.00
2022-08-28T11:25:26.174Z,64768.00
2022-08-28T11:26:21.200Z,52448.00
2022-08-28T11:27:20.280Z,16800.00
2022-08-28T11:28:20.380Z,23552.00
2022-08-28T11:29:20.532Z,17344.00
2022-08-28T11:30:20.693Z,16704.00
2022-08-28T11:31:29.322Z,17408.00
2022-08-28T11:32:21.961Z,24544.00
2022-08-28T11:33:21.032Z,29632.00
2022-08-28T11:34:21.193Z,53856.00
2022-08-28T11:35:21.287Z,64288.00
2022-08-28T11:36:21.436Z,57760.00
2022-08-28T11:37:21.573Z,62688.00
2022-08-28T11:38:21.732Z,67136.00
2022-08-28T11:39:21.943Z,65664.00
2022-08-28T11:40:22.033Z,62848.00
2022-08-28T11:41:22.093Z,60000.00
2022-08-28T11:42:22.241Z,63264.00
2022-08-28T11:43:22.355Z,64544.00
2022-08-28T11:44:22.474Z,64448.00
2022-08-28T11:45:22.589Z,68576.00
2022-08-28T11:46:24.144Z,68128.00
2022-08-28T11:47:22.825Z,67040.00
2022-08-28T11:48:22.943Z,61888.00
2022-08-28T11:49:23.049Z,64448.00
2022-08-28T11:50:23.226Z,68448.00
2022-08-28T11:51:23.303Z,66624.00
2022-08-28T11:52:23.455Z,63168.00
2022-08-28T11:53:23.554Z,64544.00
2022-08-28T11:54:23.703Z,68160.00
2022-08-28T11:55:23.865Z,67488.00
2022-08-28T11:56:31.017Z,67904.00
2022-08-28T11:57:25.094Z,69536.00
2022-08-28T11:58:24.235Z,60960.00
2022-08-28T11:59:24.384Z,61248.00
2022-08-28T12:00:24.529Z,66880.00
2022-08-28T12:01:24.616Z,66208.00
2022-08-28T12:02:24.813Z,65856.00
2022-08-28T12:03:24.883Z,64000.00
2022-08-28T12:04:25.039Z,62496.00
2022-08-28T12:05:25.166Z,65568.00
2022-08-28T12:06:25.257Z,70656.00
2022-08-28T12:07:25.355Z,72064.00
2022-08-28T12:08:25.484Z,73312.00
2022-08-28T12:09:25.586Z,14272.00
2022-08-28T12:10:27.616Z,14996.00
2022-08-28T12:11:25.843Z,16320.00
2022-08-28T12:12:26.016Z,20800.00
2022-08-28T12:13:26.097Z,18944.00
2022-08-28T12:14:26.277Z,69184.00
2022-08-28T12:15:26.356Z,32704.00
2022-08-28T12:16:26.537Z,71232.00
2022-08-28T12:17:30.544Z,63424.00
2022-08-28T12:18:26.778Z,62880.00
2022-08-28T12:19:26.877Z,64864.00
2022-08-28T12:20:27.065Z,62688.00
2022-08-28T12:21:27.146Z,65696.00
2022-08-28T12:22:27.318Z,70688.00
2022-08-28T12:23:27.417Z,73536.00
2022-08-28T12:24:27.538Z,76864.00
2022-08-28T12:25:27.639Z,17408.00
2022-08-28T12:26:27.787Z,14228.00
2022-08-28T12:27:27.885Z,48736.00